Time;durP1;ratioP1;P1;durP2;ratioP2;P2;SDS_P1;SDS_P2;PMS_P1;PMS_P2;Temp;Humidity;BMP_temperature;BMP_pressure;BME280_temperature;BME280_humidity;BME280_pressure;Samples;Min_cycle;Max_cycle;Signal;HPM_P1;HPM_P2
2021/08/07 02:46:11;;;;;;;5.53;3.67;;;16.80;99.90;;;;;;5309959;24;20056;-81
2021/08/07 02:48:40;;;;;;;3.90;2.97;;;16.80;99.90;;;;;;4746112;30;20063;-81
2021/08/07 02:51:06;;;;;;;7.85;3.85;;;16.70;99.90;;;;;;4746416;30;20028;-80
2021/08/07 02:53:42;;;;;;;5.20;3.45;;;16.70;99.90;;;;;;4732759;30;20081;-80
2021/08/07 02:56:08;;;;;;;5.07;3.53;;;16.70;99.90;;;;;;4731624;30;20332;-80
2021/08/07 02:58:35;;;;;;;7.32;3.47;;;16.70;99.90;;;;;;4746410;30;20028;-80
2021/08/07 03:01:01;;;;;;;6.22;3.55;;;16.70;99.90;;;;;;4746301;30;20024;-80
2021/08/07 03:03:31;;;;;;;6.85;3.30;;;16.70;99.90;;;;;;4718503;30;20051;-80
2021/08/07 03:05:58;;;;;;;6.57;3.38;;;16.70;99.90;;;;;;4731705;30;20028;-80
2021/08/07 03:08:24;;;;;;;7.15;3.90;;;16.70;99.90;;;;;;4731579;30;20033;-80
2021/08/07 03:10:51;;;;;;;5.60;3.67;;;16.70;99.90;;;;;;4731807;30;20025;-80
2021/08/07 03:13:22;;;;;;;5.75;3.47;;;16.70;99.90;;;;;;4746212;30;20223;-80
2021/08/07 03:15:49;;;;;;;6.25;4.35;;;16.70;99.90;;;;;;4731617;30;20553;-80
2021/08/07 03:18:19;;;;;;;8.35;3.72;;;16.70;99.90;;;;;;4732394;30;20032;-80
2021/08/07 03:20:44;;;;;;;9.85;5.20;;;16.60;99.90;;;;;;4745829;30;20169;-80
2021/08/07 03:23:12;;;;;;;5.03;4.03;;;16.60;99.90;;;;;;4746091;30;20037;-80
2021/08/07 03:25:46;;;;;;;5.32;3.90;;;16.60;99.90;;;;;;4732475;30;20224;-80
2021/08/07 03:28:17;;;;;;;5.10;3.50;;;16.60;99.90;;;;;;4745841;30;20042;-80
2021/08/07 03:30:43;;;;;;;5.93;4.22;;;16.60;99.90;;;;;;4731272;30;20028;-80
2021/08/07 03:33:09;;;;;;;9.18;4.18;;;16.60;99.90;;;;;;4731385;30;20039;-80
2021/08/07 03:35:36;;;;;;;7.57;4.15;;;16.60;99.90;;;;;;4731696;30;20067;-80
2021/08/07 03:38:03;;;;;;;12.15;4.32;;;16.60;99.90;;;;;;4731202;30;20072;-81
2021/08/07 03:40:28;;;;;;;5.90;3.70;;;16.60;99.90;;;;;;4731212;30;20331;-80
2021/08/07 03:42:55;;;;;;;5.43;3.65;;;16.60;99.90;;;;;;4731397;30;20032;-80
2021/08/07 03:45:24;;;;;;;6.20;3.88;;;16.60;99.90;;;;;;4730962;30;20074;-80
2021/08/07 03:47:55;;;;;;;4.18;3.40;;;16.60;99.90;;;;;;4745471;30;20033;-80
2021/08/07 03:50:26;;;;;;;6.43;3.55;;;16.60;99.90;;;;;;4731715;30;20334;-80
2021/08/07 03:52:52;;;;;;;5.22;3.88;;;16.60;99.90;;;;;;4745471;30;20328;-80
2021/08/07 03:55:18;;;;;;;3.90;3.22;;;16.60;99.90;;;;;;4745410;30;20036;-80
2021/08/07 03:57:49;;;;;;;6.07;3.90;;;16.60;99.90;;;;;;4745425;30;20063;-80
2021/08/07 04:00:16;;;;;;;11.85;4.45;;;16.60;99.90;;;;;;4745760;30;20068;-80
2021/08/07 04:02:46;;;;;;;6.40;3.92;;;16.60;99.90;;;;;;4745693;30;20143;-79
2021/08/07 04:05:12;;;;;;;5.90;3.42;;;16.70;99.90;;;;;;4745616;30;20032;-79
2021/08/07 04:07:38;;;;;;;4.15;3.47;;;16.70;99.90;;;;;;4746182;30;20029;-79
2021/08/07 04:10:05;;;;;;;5.97;4.37;;;16.70;99.90;;;;;;4747379;30;20040;-79
2021/08/07 04:12:30;;;;;;;6.38;3.55;;;16.70;99.90;;;;;;4731107;30;20103;-79
2021/08/07 04:14:57;;;;;;;8.10;3.78;;;16.80;99.90;;;;;;4745580;30;20044;-80
2021/08/07 04:17:23;;;;;;;4.97;3.70;;;16.80;99.90;;;;;;4730009;30;20040;-79
2021/08/07 04:19:50;;;;;;;5.13;3.45;;;16.80;99.90;;;;;;4744978;30;20147;-80
2021/08/07 04:22:23;;;;;;;6.55;4.00;;;16.80;99.90;;;;;;4745190;30;20039;-80
2021/08/07 04:24:50;;;;;;;6.05;4.05;;;16.90;99.90;;;;;;4716351;30;20229;-80
2021/08/07 04:27:16;;;;;;;5.40;3.75;;;16.90;99.90;;;;;;4745304;30;20374;-81
2021/08/07 04:29:45;;;;;;;5.97;4.40;;;16.90;99.90;;;;;;4744924;30;20025;-80
2021/08/07 04:32:11;;;;;;;13.18;3.78;;;17.00;99.90;;;;;;4730324;30;20059;-80
2021/08/07 04:34:37;;;;;;;9.88;4.15;;;17.10;99.90;;;;;;4744893;30;20095;-80
2021/08/07 04:37:04;;;;;;;;;;;17.10;99.90;;;;;;4745299;30;20028;-80
2021/08/07 04:39:31;;;;;;;7.65;4.20;;;17.20;99.90;;;;;;4745054;30;19910;-80
2021/08/07 04:42:00;;;;;;;8.98;3.92;;;17.30;99.90;;;;;;4744959;30;20054;-80
2021/08/07 04:44:26;;;;;;;6.07;4.05;;;17.40;99.90;;;;;;4730375;30;20261;-80
2021/08/07 04:46:52;;;;;;;14.68;5.38;;;17.50;99.90;;;;;;4744386;30;20122;-80
2021/08/07 04:49:17;;;;;;;8.57;5.95;;;17.60;99.90;;;;;;4732802;30;20028;-80
2021/08/07 04:51:43;;;;;;;11.32;5.25;;;17.70;99.90;;;;;;4727188;30;20021;-80
2021/08/07 04:54:12;;;;;;;10.88;5.20;;;17.70;99.90;;;;;;4743193;30;20103;-80
2021/08/07 04:56:42;;;;;;;10.23;5.22;;;17.80;99.90;;;;;;4744826;30;20382;-80
2021/08/07 04:59:09;;;;;;;5.97;4.60;;;17.90;99.90;;;;;;4730530;30;20049;-80
2021/08/07 05:01:35;;;;;;;8.18;4.68;;;18.00;99.90;;;;;;4730637;30;20039;-80
2021/08/07 05:04:01;;;;;;;7.05;4.55;;;18.10;99.90;;;;;;4744402;30;20056;-80
2021/08/07 05:06:27;;;;;;;7.63;4.85;;;18.20;99.90;;;;;;4744226;30;20033;-80
2021/08/07 05:08:53;;;;;;;12.23;4.93;;;18.30;99.90;;;;;;4729541;30;20075;-80
2021/08/07 05:11:20;;;;;;;19.55;4.60;;;18.40;99.90;;;;;;4729494;30;20048;-80
2021/08/07 05:13:47;;;;;;;8.40;4.18;;;18.50;99.90;;;;;;4744501;30;20036;-80
2021/08/07 05:16:15;;;;;;;4.88;3.70;;;18.70;99.90;;;;;;4744422;30;20033;-80
2021/08/07 05:18:41;;;;;;;6.05;4.03;;;18.80;99.90;;;;;;4744665;30;20040;-80
2021/08/07 05:21:08;;;;;;;5.10;3.55;;;18.80;99.90;;;;;;4729817;30;20033;-80
2021/08/07 05:23:38;;;;;;;8.50;3.28;;;19.00;99.90;;;;;;4744424;30;20064;-80
2021/08/07 05:26:04;;;;;;;7.68;4.07;;;19.10;99.90;;;;;;4744279;30;20037;-80
2021/08/07 05:28:31;;;;;;;;;;;19.20;99.90;;;;;;4744425;30;20151;-80
2021/08/07 05:31:00;;;;;;;5.53;3.28;;;19.30;99.90;;;;;;4758720;30;20201;-80
2021/08/07 05:33:26;;;;;;;7.03;3.50;;;19.40;99.90;;;;;;4734109;30;20029;-80
2021/08/07 05:35:52;;;;;;;9.35;3.55;;;19.60;99.90;;;;;;4725329;30;20040;-80
2021/08/07 05:38:18;;;;;;;7.97;3.00;;;19.70;99.90;;;;;;4744002;30;20351;-80
2021/08/07 05:40:44;;;;;;;5.75;3.10;;;19.80;99.20;;;;;;4745176;30;20327;-80
2021/08/07 05:43:11;;;;;;;6.50;3.53;;;19.90;98.80;;;;;;4747275;30;20082;-80
2021/08/07 05:45:37;;;;;;;6.53;3.30;;;19.90;98.70;;;;;;4746569;30;20087;-80
2021/08/07 05:48:03;;;;;;;8.40;3.17;;;20.00;98.50;;;;;;4746794;30;20048;-80
2021/08/07 05:50:34;;;;;;;14.00;5.03;;;20.10;98.30;;;;;;4746949;30;20275;-80
2021/08/07 05:53:01;;;;;;;7.60;2.80;;;20.20;98.30;;;;;;4746886;30;20382;-80
2021/08/07 05:55:28;;;;;;;10.05;3.45;;;20.30;98.10;;;;;;4746807;30;20040;-80
2021/08/07 05:57:53;;;;;;;9.32;2.78;;;20.40;97.80;;;;;;4732196;30;20044;-80
2021/08/07 06:00:21;;;;;;;5.72;3.25;;;20.50;97.50;;;;;;4746902;30;20354;-80
2021/08/07 06:02:53;;;;;;;11.05;2.60;;;20.60;97.30;;;;;;4746835;30;20032;-81
2021/08/07 06:05:36;;;;;;;5.68;2.70;;;20.70;97.40;;;;;;4747043;30;20037;-80
2021/08/07 06:08:05;;;;;;;5.80;2.90;;;21.00;96.80;;;;;;4746981;30;20028;-81
2021/08/07 06:10:32;;;;;;;10.00;2.85;;;21.40;95.80;;;;;;4746790;30;20032;-81
2021/08/07 06:12:58;;;;;;;3.90;2.53;;;21.80;95.00;;;;;;4731924;30;20252;-81
2021/08/07 06:15:25;;;;;;;6.72;3.10;;;22.20;94.20;;;;;;4743315;30;20055;-81
2021/08/07 06:17:51;;;;;;;7.30;2.97;;;22.50;93.40;;;;;;4746984;30;20036;-81
2021/08/07 06:20:17;;;;;;;6.80;2.90;;;22.80;92.50;;;;;;4732258;30;20123;-80
2021/08/07 06:22:47;;;;;;;6.75;3.00;;;23.10;92.10;;;;;;4746832;30;20040;-80
2021/08/07 06:25:13;;;;;;;5.95;3.15;;;23.40;91.40;;;;;;4747240;30;20029;-80
2021/08/07 06:27:40;;;;;;;4.63;2.42;;;23.50;90.70;;;;;;4732684;30;20048;-81
2021/08/07 06:30:07;;;;;;;8.20;2.77;;;23.50;90.20;;;;;;4732492;30;20029;-81
2021/08/07 06:32:32;;;;;;;3.45;2.38;;;23.40;90.40;;;;;;4737423;30;20625;-81
2021/08/07 06:34:58;;;;;;;8.45;2.70;;;23.50;90.90;;;;;;4732035;30;20066;-80
2021/08/07 06:37:24;;;;;;;6.72;2.55;;;23.90;89.40;;;;;;4746373;30;20051;-81
2021/08/07 06:39:50;;;;;;;9.77;2.85;;;23.80;88.50;;;;;;4731938;30;20039;-80
2021/08/07 06:42:16;;;;;;;9.07;2.95;;;23.70;89.00;;;;;;4746813;30;20032;-80
2021/08/07 06:44:54;;;;;;;7.07;2.80;;;23.80;90.00;;;;;;4733046;30;20037;-81
2021/08/07 06:47:21;;;;;;;7.40;2.72;;;24.00;90.50;;;;;;4744511;30;20052;-81
2021/08/07 06:49:47;;;;;;;7.40;2.47;;;24.20;89.50;;;;;;4731912;30;20074;-81
2021/08/07 06:52:14;;;;;;;7.95;2.55;;;24.40;87.90;;;;;;4745978;30;20035;-81
2021/08/07 06:54:40;;;;;;;7.70;2.40;;;24.60;86.90;;;;;;4745672;30;20641;-81
2021/08/07 06:57:08;;;;;;;6.00;2.92;;;24.80;87.00;;;;;;4746328;30;20038;-81
2021/08/07 06:59:35;;;;;;;8.25;2.22;;;25.20;85.00;;;;;;4728854;30;20071;-82
2021/08/07 07:02:01;;;;;;;3.40;2.25;;;25.50;81.60;;;;;;4745096;30;20052;-82
2021/08/07 07:04:29;;;;;;;2.75;1.73;;;25.60;81.70;;;;;;4745483;30;20278;-81
2021/08/07 07:06:57;;;;;;;12.60;2.45;;;25.60;78.50;;;;;;4746417;30;20040;-81
2021/08/07 07:09:23;;;;;;;3.28;2.10;;;25.20;79.00;;;;;;4746143;30;20032;-81
2021/08/07 07:11:49;;;;;;;3.03;2.13;;;25.10;79.80;;;;;;4746866;30;20036;-81
2021/08/07 07:14:16;;;;;;;8.77;3.05;;;25.00;80.60;;;;;;4731683;30;20025;-81
2021/08/07 07:16:42;;;;;;;5.88;3.03;;;25.00;81.30;;;;;;4746433;30;20071;-82
2021/08/07 07:19:08;;;;;;;5.35;2.60;;;25.10;81.60;;;;;;4731982;30;20032;-81
2021/08/07 07:21:34;;;;;;;4.60;2.22;;;25.10;82.30;;;;;;4746321;30;20075;-82
2021/08/07 07:24:01;;;;;;;4.55;2.30;;;25.00;83.00;;;;;;4746331;30;20231;-82
2021/08/07 07:26:28;;;;;;;6.45;2.40;;;24.90;82.30;;;;;;4738053;30;20037;-82
2021/08/07 07:28:56;;;;;;;5.68;2.38;;;24.90;83.60;;;;;;4738706;30;20036;-82
2021/08/07 07:31:22;;;;;;;;;;;25.10;82.20;;;;;;4745560;30;20037;-82
2021/08/07 07:33:48;;;;;;;5.50;2.33;;;25.20;80.50;;;;;;4746219;30;20044;-82
2021/08/07 07:36:15;;;;;;;6.55;2.78;;;25.10;81.50;;;;;;4737889;30;20037;-82
2021/08/07 07:38:41;;;;;;;3.53;2.53;;;25.00;82.10;;;;;;4746743;30;20320;-82
2021/08/07 07:41:07;;;;;;;5.60;2.67;;;25.00;83.70;;;;;;4745898;30;20032;-82
2021/08/07 07:43:33;;;;;;;7.53;2.58;;;25.00;83.80;;;;;;4745833;30;20353;-82
2021/08/07 07:45:59;;;;;;;10.25;2.70;;;25.10;84.20;;;;;;4745954;30;20060;-83
2021/08/07 07:48:25;;;;;;;5.38;2.70;;;25.30;84.60;;;;;;4745809;30;20052;-83
2021/08/07 07:50:51;;;;;;;6.50;2.38;;;25.50;84.20;;;;;;4760585;30;20033;-83
2021/08/07 07:53:19;;;;;;;5.85;2.50;;;25.70;82.50;;;;;;4745758;30;20070;-83
2021/08/07 07:55:45;;;;;;;5.45;3.10;;;25.80;81.60;;;;;;4745310;30;20319;-82
2021/08/07 07:58:11;;;;;;;6.33;2.30;;;26.00;78.30;;;;;;4745588;30;20028;-83
2021/08/07 08:00:37;;;;;;;5.07;2.07;;;25.90;77.30;;;;;;4731097;30;20040;-82
2021/08/07 08:03:04;;;;;;;3.97;2.03;;;25.80;79.00;;;;;;4730303;30;20114;-82
2021/08/07 08:05:35;;;;;;;3.35;1.80;;;26.00;80.50;;;;;;4731838;30;20037;-81
2021/08/07 08:08:04;;;;;;;6.13;2.33;;;26.10;79.60;;;;;;4739524;30;20059;-83
2021/08/07 08:10:30;;;;;;;6.33;2.23;;;26.10;78.00;;;;;;4746556;30;20025;-81
2021/08/07 08:12:56;;;;;;;4.70;2.30;;;26.10;76.30;;;;;;4746206;30;20271;-82
2021/08/07 08:15:23;;;;;;;4.47;2.17;;;26.00;77.40;;;;;;4746436;30;20032;-82
2021/08/07 08:17:49;;;;;;;4.63;2.20;;;25.90;76.20;;;;;;4745652;30;20029;-82
2021/08/07 08:20:15;;;;;;;3.40;1.63;;;25.80;76.80;;;;;;4745488;30;20048;-82
2021/08/07 08:22:42;;;;;;;6.45;1.70;;;25.70;79.50;;;;;;4746093;30;20100;-82
2021/08/07 08:25:11;;;;;;;2.92;1.60;;;25.80;76.10;;;;;;4730773;30;20040;-82
2021/08/07 08:27:38;;;;;;;5.07;1.90;;;25.90;78.70;;;;;;4745263;30;20036;-82
2021/08/07 08:30:05;;;;;;;4.83;1.90;;;26.10;78.40;;;;;;4745268;30;20025;-82
2021/08/07 08:32:31;;;;;;;6.15;2.45;;;26.30;77.00;;;;;;4745551;30;20049;-82
2021/08/07 08:34:57;;;;;;;5.10;1.73;;;26.40;77.40;;;;;;4744814;30;20025;-82
2021/08/07 08:37:24;;;;;;;7.32;1.88;;;26.60;76.60;;;;;;4744741;30;20028;-82
2021/08/07 08:39:51;;;;;;;5.03;1.90;;;26.80;72.50;;;;;;4730644;30;20029;-82
2021/08/07 08:42:20;;;;;;;3.73;1.37;;;26.80;73.70;;;;;;4730394;30;20122;-81
2021/08/07 08:44:46;;;;;;;4.85;1.50;;;27.00;69.10;;;;;;4743616;30;20291;-81
2021/08/07 08:47:16;;;;;;;2.50;1.40;;;26.90;68.30;;;;;;4754421;30;20052;-81
2021/08/07 08:49:45;;;;;;;3.60;1.10;;;26.80;72.30;;;;;;4745856;30;20340;-81
2021/08/07 08:52:13;;;;;;;4.05;2.55;;;27.00;68.80;;;;;;4744881;30;20055;-81
2021/08/07 08:54:41;;;;;;;2.25;1.40;;;26.90;70.70;;;;;;4745177;30;20312;-81
2021/08/07 08:57:07;;;;;;;3.75;1.08;;;27.00;69.40;;;;;;4745159;30;20028;-81
2021/08/07 08:59:33;;;;;;;1.65;0.98;;;27.10;69.00;;;;;;4731271;30;20230;-81
2021/08/07 09:02:00;;;;;;;3.67;1.67;;;27.00;68.40;;;;;;4744719;30;20316;-81
2021/08/07 09:04:26;;;;;;;1.73;1.17;;;27.10;67.20;;;;;;4730077;30;20059;-81
2021/08/07 09:06:53;;;;;;;4.53;1.40;;;27.10;68.60;;;;;;4730347;30;20028;-81
2021/08/07 09:09:44;;;;;;;3.33;1.10;;;27.20;69.50;;;;;;4758945;30;20240;-81
2021/08/07 09:12:14;;;;;;;2.95;1.02;;;27.40;69.50;;;;;;4744415;30;20057;-81
2021/08/07 09:14:46;;;;;;;2.10;1.20;;;27.70;70.20;;;;;;4745395;30;20103;-81
2021/08/07 09:17:17;;;;;;;3.05;1.65;;;27.90;67.20;;;;;;4747776;30;20029;-81
2021/08/07 09:19:54;;;;;;;3.70;1.27;;;28.00;67.60;;;;;;4733939;30;20323;-81
2021/08/07 09:22:33;;;;;;;4.97;1.52;;;28.00;67.20;;;;;;4747613;30;20328;-81
2021/08/07 09:25:16;;;;;;;1.90;1.30;;;28.10;66.20;;;;;;4744128;30;20032;-78
2021/08/07 09:27:49;;;;;;;2.92;1.13;;;28.10;64.10;;;;;;4747618;30;20036;-78
2021/08/07 09:30:19;;;;;;;5.13;1.35;;;28.00;65.40;;;;;;4733850;30;20123;-79
2021/08/07 09:33:08;;;;;;;1.90;1.00;;;28.00;66.60;;;;;;4748409;30;20024;-79
2021/08/07 09:35:44;;;;;;;7.53;1.58;;;28.10;65.90;;;;;;4741646;30;20116;-78
2021/08/07 09:38:23;;;;;;;2.67;1.52;;;28.20;67.00;;;;;;4732969;30;20036;-79
2021/08/07 09:41:16;;;;;;;5.80;1.70;;;28.40;69.40;;;;;;4689565;30;20034;-78
2021/08/07 09:43:50;;;;;;;3.67;1.15;;;28.40;66.60;;;;;;4681767;30;20338;-78
2021/08/07 09:46:23;;;;;;;7.78;1.30;;;28.40;69.90;;;;;;4686359;30;20279;-78
2021/08/07 09:48:55;;;;;;;3.40;1.33;;;28.50;70.00;;;;;;4668947;30;20030;-78
2021/08/07 09:51:35;;;;;;;1.95;1.38;;;28.60;68.70;;;;;;4675532;30;20894;-78
2021/08/07 09:54:19;;;;;;;3.63;1.27;;;28.70;68.80;;;;;;4684108;30;20105;-78
2021/08/07 09:56:48;;;;;;;1.80;1.23;;;28.60;68.70;;;;;;4687241;30;20432;-79
2021/08/07 09:59:16;;;;;;;2.58;1.42;;;28.70;70.20;;;;;;4672857;30;20234;-78
2021/08/07 10:01:43;;;;;;;2.28;1.70;;;28.80;70.10;;;;;;4678382;30;20037;-79
2021/08/07 10:04:12;;;;;;;2.37;1.60;;;28.90;69.00;;;;;;4672070;30;20078;-79
2021/08/07 10:06:41;;;;;;;5.05;1.55;;;29.10;70.40;;;;;;4679300;30;20092;-79
2021/08/07 10:09:09;;;;;;;5.95;1.45;;;29.40;71.00;;;;;;4667475;30;20081;-79
2021/08/07 10:11:36;;;;;;;2.63;1.50;;;29.60;67.70;;;;;;4671600;30;20069;-76
2021/08/07 10:14:03;;;;;;;3.10;1.90;;;29.60;67.90;;;;;;4679791;30;20026;-79
2021/08/07 10:16:37;;;;;;;5.80;2.17;;;29.50;65.50;;;;;;4677735;30;20064;-79
2021/08/07 10:19:06;;;;;;;5.80;1.48;;;29.50;68.50;;;;;;4729270;30;20040;-79
2021/08/07 10:21:33;;;;;;;5.15;1.45;;;29.70;68.20;;;;;;4732954;30;20041;-79
2021/08/07 10:24:00;;;;;;;1.83;1.30;;;29.60;66.50;;;;;;4746724;30;20037;-79
2021/08/07 10:26:28;;;;;;;4.53;1.42;;;29.70;67.50;;;;;;4746775;30;20040;-78
2021/08/07 10:28:57;;;;;;;2.20;1.40;;;29.70;65.70;;;;;;4738750;30;20218;-78
2021/08/07 10:31:26;;;;;;;2.97;1.08;;;29.60;68.00;;;;;;4747313;30;20078;-79
2021/08/07 10:33:57;;;;;;;2.53;1.58;;;29.60;66.70;;;;;;4732882;30;20029;-79
2021/08/07 10:36:26;;;;;;;3.28;1.70;;;29.50;67.30;;;;;;4748420;30;20215;-78
2021/08/07 10:38:53;;;;;;;5.40;1.90;;;29.40;68.30;;;;;;4747360;30;20032;-79
2021/08/07 10:41:21;;;;;;;3.05;1.50;;;29.70;66.70;;;;;;4747852;30;20205;-79
2021/08/07 10:43:54;;;;;;;5.70;2.00;;;29.80;67.50;;;;;;4747532;30;20033;-78
2021/08/07 10:46:21;;;;;;;3.25;1.60;;;29.90;66.00;;;;;;4747226;30;20048;-78
2021/08/07 10:48:48;;;;;;;2.40;1.50;;;30.00;66.40;;;;;;4746789;30;20056;-78
2021/08/07 10:51:26;;;;;;;3.92;1.40;;;30.10;66.70;;;;;;4746866;30;20043;-78
2021/08/07 10:54:26;;;;;;;11.35;1.77;;;30.20;64.70;;;;;;4732530;30;20107;-78
2021/08/07 10:56:54;;;;;;;2.70;1.60;;;30.10;64.10;;;;;;4748718;30;20033;-78
2021/08/07 10:59:26;;;;;;;4.03;1.52;;;29.80;67.10;;;;;;4761313;30;20131;-78
2021/08/07 11:01:58;;;;;;;2.33;1.60;;;29.70;65.20;;;;;;4745044;30;20033;-76
2021/08/07 11:04:27;;;;;;;1.67;1.42;;;29.80;68.50;;;;;;4741968;30;20052;-76
2021/08/07 11:07:02;;;;;;;3.35;1.63;;;30.00;68.20;;;;;;4744796;30;20032;-77
2021/08/07 11:09:30;;;;;;;5.30;1.67;;;30.20;66.30;;;;;;4728769;30;20028;-77
2021/08/07 11:12:05;;;;;;;2.50;1.30;;;30.40;65.80;;;;;;4745134;30;20030;-79
2021/08/07 11:14:34;;;;;;;4.28;1.50;;;30.60;66.00;;;;;;4743653;30;20287;-76
2021/08/07 11:17:05;;;;;;;2.63;1.80;;;30.70;67.20;;;;;;4758852;30;20052;-76
2021/08/07 11:20:04;;;;;;;3.95;1.80;;;30.90;65.80;;;;;;4743928;30;20036;-78
2021/08/07 11:22:36;;;;;;;5.47;2.00;;;30.90;65.50;;;;;;4727518;30;20321;-77
2021/08/07 11:25:14;;;;;;;2.03;1.63;;;30.80;64.70;;;;;;4744114;30;20048;-77
2021/08/07 11:27:46;;;;;;;3.92;1.70;;;30.90;64.10;;;;;;4745109;30;20050;-76
2021/08/07 11:30:15;;;;;;;2.67;1.70;;;30.90;64.40;;;;;;4744678;30;20044;-77
2021/08/07 11:32:42;;;;;;;4.60;1.70;;;30.60;64.60;;;;;;4746244;30;20040;-77
2021/08/07 11:35:08;;;;;;;25.40;2.38;;;30.50;66.00;;;;;;4745507;30;20025;-77
2021/08/07 11:37:34;;;;;;;5.13;1.97;;;30.50;66.40;;;;;;4746509;30;20037;-78
2021/08/07 11:40:06;;;;;;;2.33;1.50;;;30.80;65.50;;;;;;4746211;30;20311;-79
2021/08/07 11:42:38;;;;;;;4.22;1.70;;;30.90;63.30;;;;;;4745693;30;20083;-77
2021/08/07 11:45:05;;;;;;;2.45;1.80;;;30.90;65.20;;;;;;4746194;30;20056;-77
2021/08/07 11:47:32;;;;;;;5.40;1.88;;;31.00;64.60;;;;;;4745643;30;20145;-77
2021/08/07 11:49:58;;;;;;;;;;;31.20;64.90;;;;;;4745797;30;20036;-77
2021/08/07 11:52:29;;;;;;;5.05;1.77;;;31.30;66.10;;;;;;4746093;30;20190;-77
2021/08/07 11:54:56;;;;;;;4.03;1.77;;;31.40;64.80;;;;;;4747705;30;20103;-77
2021/08/07 11:57:26;;;;;;;4.97;1.58;;;31.30;64.60;;;;;;4732404;30;20047;-77
2021/08/07 11:59:52;;;;;;;8.10;1.70;;;31.30;65.90;;;;;;4746123;30;20048;-77
2021/08/07 12:02:18;;;;;;;4.43;2.00;;;31.50;63.20;;;;;;4747280;30;20238;-77
2021/08/07 12:04:44;;;;;;;3.70;1.90;;;31.50;63.60;;;;;;4760375;30;20099;-77
2021/08/07 12:07:13;;;;;;;7.53;2.28;;;31.40;63.40;;;;;;4745743;30;20118;-77
2021/08/07 12:10:09;;;;;;;3.85;2.25;;;31.50;64.10;;;;;;4744652;30;20032;-77
2021/08/07 12:12:44;;;;;;;5.10;2.42;;;31.50;63.00;;;;;;4745377;30;20216;-77
2021/08/07 12:15:11;;;;;;;8.27;2.00;;;31.50;65.00;;;;;;4745504;30;20041;-77
2021/08/07 12:17:45;;;;;;;5.03;2.13;;;31.60;65.10;;;;;;4761467;30;20095;-77
2021/08/07 12:20:11;;;;;;;5.35;2.13;;;31.60;63.70;;;;;;4731301;30;20044;-77
2021/08/07 12:23:13;;;;;;;3.92;1.80;;;31.70;63.00;;;;;;4730803;30;20028;-77
2021/08/07 12:25:41;;;;;;;4.88;1.90;;;31.80;62.10;;;;;;4692613;30;20045;-77
2021/08/07 12:28:14;;;;;;;2.38;1.75;;;31.60;61.50;;;;;;4679870;30;20089;-77
2021/08/07 12:31:02;;;;;;;2.95;1.88;;;31.60;62.00;;;;;;4694282;30;20418;-77
2021/08/07 12:33:34;;;;;;;5.40;2.10;;;31.60;62.40;;;;;;4692392;30;20266;-76
2021/08/07 12:36:16;;;;;;;7.20;2.03;;;31.60;62.00;;;;;;4695989;30;20099;-79
2021/08/07 12:38:47;;;;;;;4.97;1.90;;;31.60;62.50;;;;;;4678547;30;20050;-79
2021/08/07 12:41:15;;;;;;;5.22;2.08;;;31.60;62.60;;;;;;4666386;30;20044;-78
2021/08/07 12:43:41;;;;;;;3.65;1.85;;;31.50;63.00;;;;;;4668218;30;20025;-79
2021/08/07 12:46:09;;;;;;;5.10;1.83;;;31.40;63.40;;;;;;4694544;30;20067;-79
2021/08/07 12:48:56;;;;;;;5.47;2.75;;;31.50;63.10;;;;;;4680493;30;20045;-79
2021/08/07 12:51:27;;;;;;;6.80;2.10;;;31.60;62.00;;;;;;4698025;30;20042;-79
2021/08/07 12:53:55;;;;;;;2.67;2.08;;;31.70;63.00;;;;;;4698449;30;20075;-79
2021/08/07 12:56:22;;;;;;;6.28;1.83;;;31.90;60.90;;;;;;4669817;30;20049;-79
2021/08/07 12:59:08;;;;;;;5.85;2.10;;;31.80;62.40;;;;;;4705723;30;20071;-79
2021/08/07 13:01:39;;;;;;;5.75;2.13;;;31.60;62.10;;;;;;4751370;30;20040;-77
2021/08/07 13:04:09;;;;;;;3.33;1.95;;;31.70;62.40;;;;;;4761173;30;20059;-79
2021/08/07 13:06:55;;;;;;;8.52;2.25;;;31.80;62.60;;;;;;4751592;30;20402;-79
2021/08/07 13:09:32;;;;;;;3.75;2.20;;;31.80;61.80;;;;;;4750316;30;20067;-79
2021/08/07 13:12:12;;;;;;;2.92;1.90;;;31.60;62.60;;;;;;4745326;30;20097;-79
2021/08/07 13:14:52;;;;;;;3.22;1.90;;;31.70;62.50;;;;;;4741420;30;20036;-79
2021/08/07 13:17:33;;;;;;;3.92;1.83;;;31.90;62.50;;;;;;4736183;30;20029;-79
2021/08/07 13:19:59;;;;;;;4.68;2.08;;;32.10;61.50;;;;;;4743994;30;20025;-79
2021/08/07 13:22:25;;;;;;;4.05;2.17;;;32.30;59.90;;;;;;4751261;30;20088;-79
2021/08/07 13:24:56;;;;;;;3.10;1.80;;;32.30;59.00;;;;;;4751834;30;20040;-79
2021/08/07 13:27:43;;;;;;;4.65;1.92;;;32.30;59.00;;;;;;4766926;30;20306;-79
2021/08/07 13:30:15;;;;;;;3.85;1.83;;;32.10;60.00;;;;;;4750762;30;20044;-78
2021/08/07 13:32:42;;;;;;;5.00;2.00;;;31.90;61.10;;;;;;4752494;30;20032;-79
2021/08/07 13:35:15;;;;;;;;;;;31.80;60.40;;;;;;4754224;30;20032;-79
2021/08/07 13:37:45;;;;;;;2.78;1.85;;;31.90;62.20;;;;;;4753724;30;19910;-79
2021/08/07 13:40:14;;;;;;;8.38;2.45;;;31.90;59.30;;;;;;4752951;30;20328;-79
2021/08/07 13:42:40;;;;;;;5.47;2.08;;;31.90;60.50;;;;;;4752751;30;20042;-79
2021/08/07 13:45:10;;;;;;;4.18;1.85;;;32.00;59.10;;;;;;4752649;30;20058;-81
2021/08/07 13:47:37;;;;;;;2.42;1.80;;;32.30;59.30;;;;;;4767472;30;20048;-80
2021/08/07 13:50:05;;;;;;;5.55;2.40;;;32.30;58.20;;;;;;4753914;30;20036;-80
2021/08/07 13:52:31;;;;;;;4.20;2.33;;;32.40;58.70;;;;;;4751931;30;20041;-81
2021/08/07 13:54:57;;;;;;;7.97;1.90;;;32.50;58.90;;;;;;4752202;30;20032;-81
2021/08/07 13:57:26;;;;;;;5.30;2.35;;;32.50;58.60;;;;;;4751852;30;20037;-80
2021/08/07 13:59:51;;;;;;;3.72;2.42;;;32.10;58.10;;;;;;4752004;30;20033;-79
2021/08/07 14:02:17;;;;;;;6.93;2.00;;;31.80;59.70;;;;;;4750387;30;20035;-80
2021/08/07 14:04:44;;;;;;;7.47;2.83;;;31.90;60.40;;;;;;4751372;30;20300;-79
2021/08/07 14:07:10;;;;;;;;;;;32.10;59.90;;;;;;4751229;30;20031;-77
2021/08/07 14:09:36;;;;;;;;;;;32.20;60.70;;;;;;4737518;30;19945;-80
2021/08/07 14:12:03;;;;;;;7.32;1.95;;;32.40;59.40;;;;;;4736880;30;19907;-79
2021/08/07 14:14:29;;;;;;;3.90;2.05;;;32.40;58.20;;;;;;4752612;30;20044;-79
2021/08/07 14:16:55;;;;;;;4.93;2.13;;;32.60;57.10;;;;;;4766439;30;20047;-79
2021/08/07 14:19:22;;;;;;;3.47;1.70;;;32.70;56.30;;;;;;4753061;30;20037;-79
2021/08/07 14:21:49;;;;;;;4.32;1.88;;;32.70;56.60;;;;;;4737291;30;20032;-80
2021/08/07 14:24:16;;;;;;;4.68;2.05;;;32.80;56.50;;;;;;4746734;30;20033;-80
2021/08/07 14:26:44;;;;;;;5.55;1.95;;;32.80;56.00;;;;;;4735992;30;20036;-80
2021/08/07 14:29:12;;;;;;;4.00;2.40;;;32.80;56.20;;;;;;4747738;30;20036;-79
2021/08/07 14:31:38;;;;;;;3.17;1.88;;;32.90;55.20;;;;;;4735874;30;20040;-79
2021/08/07 14:34:07;;;;;;;3.58;2.22;;;32.90;55.30;;;;;;4752082;30;20116;-79
2021/08/07 14:36:33;;;;;;;2.10;1.73;;;32.90;54.90;;;;;;4747374;30;20036;-77
2021/08/07 14:39:00;;;;;;;3.20;2.15;;;32.80;55.10;;;;;;4746890;30;20047;-78
2021/08/07 14:41:26;;;;;;;3.20;2.00;;;32.70;54.80;;;;;;4748543;30;20386;-77
2021/08/07 14:43:52;;;;;;;3.08;2.03;;;32.60;55.80;;;;;;4734478;30;20055;-77
2021/08/07 14:46:18;;;;;;;6.63;1.87;;;32.50;55.20;;;;;;4749583;30;20107;-77
2021/08/07 14:48:44;;;;;;;4.67;2.13;;;32.30;56.50;;;;;;4747031;30;20037;-77
2021/08/07 14:51:10;;;;;;;3.80;2.33;;;31.90;57.10;;;;;;4745841;30;20332;-77
2021/08/07 14:53:36;;;;;;;11.98;3.00;;;31.70;57.00;;;;;;4745511;30;20080;-77
2021/08/07 14:56:03;;;;;;;2.20;1.90;;;31.80;58.10;;;;;;4746417;30;20100;-77
2021/08/07 14:58:29;;;;;;;;;;;32.10;58.00;;;;;;4764203;30;20114;-79
2021/08/07 15:00:55;;;;;;;6.70;2.25;;;32.20;57.50;;;;;;4748693;30;19910;-79
2021/08/07 15:03:21;;;;;;;2.97;1.90;;;32.20;56.60;;;;;;4721811;30;20029;-79
2021/08/07 15:05:47;;;;;;;3.83;2.30;;;32.10;56.60;;;;;;4754150;30;20049;-79
2021/08/07 15:08:12;;;;;;;4.17;2.47;;;31.90;57.10;;;;;;4750745;30;20055;-79
2021/08/07 15:10:38;;;;;;;5.03;2.90;;;31.90;57.60;;;;;;4750229;30;20358;-79
2021/08/07 15:13:04;;;;;;;5.13;2.60;;;31.90;57.40;;;;;;4746675;30;20071;-79
2021/08/07 15:15:31;;;;;;;5.88;2.72;;;31.90;57.60;;;;;;4740078;30;20040;-79
2021/08/07 15:17:57;;;;;;;6.73;2.73;;;32.00;56.90;;;;;;4749445;30;20036;-79
2021/08/07 15:20:24;;;;;;;7.32;2.63;;;31.90;56.30;;;;;;4750566;30;20278;-78
2021/08/07 15:22:52;;;;;;;7.13;3.10;;;31.70;56.80;;;;;;4765034;30;20024;-79
2021/08/07 15:25:18;;;;;;;5.97;2.20;;;31.70;57.10;;;;;;4747696;30;20048;-79
2021/08/07 15:27:45;;;;;;;3.05;2.38;;;31.60;56.70;;;;;;4747738;30;20017;-78
2021/08/07 15:30:14;;;;;;;5.85;3.35;;;31.60;57.10;;;;;;4763931;30;20328;-78
2021/08/07 15:32:40;;;;;;;5.45;3.13;;;31.60;57.40;;;;;;4764705;30;20040;-78
2021/08/07 15:35:08;;;;;;;7.13;3.10;;;31.60;57.80;;;;;;4749169;30;20037;-79
2021/08/07 15:37:34;;;;;;;4.15;2.65;;;31.60;58.50;;;;;;4747278;30;20359;-79
2021/08/07 15:40:00;;;;;;;5.03;2.90;;;31.40;58.60;;;;;;4750957;30;20036;-79
2021/08/07 15:42:26;;;;;;;6.20;2.50;;;31.20;58.70;;;;;;4749300;30;20048;-78